createdAt,value
2018-12-22T00:00:01.469Z,2.03
2018-12-22T00:02:32.583Z,1.30
2018-12-22T00:05:01.422Z,2.10
2018-12-22T00:07:30.291Z,0.97
2018-12-22T00:09:59.111Z,1.33
2018-12-22T00:12:27.985Z,1.20
2018-12-22T00:14:57.146Z,1.37
2018-12-22T00:17:26.190Z,2.80
2018-12-22T00:19:54.993Z,1.73
2018-12-22T00:22:23.820Z,0.83
2018-12-22T00:24:52.814Z,0.97
2018-12-22T00:27:21.634Z,3.13
2018-12-22T00:29:50.446Z,0.80
2018-12-22T00:32:19.383Z,0.90
2018-12-22T00:34:51.794Z,0.70
2018-12-22T00:37:20.694Z,0.60
2018-12-22T00:39:49.511Z,0.90
2018-12-22T00:42:18.491Z,0.90
2018-12-22T00:44:47.311Z,0.57
2018-12-22T00:47:16.125Z,0.60
2018-12-22T00:49:44.939Z,2.47
2018-12-22T00:52:13.795Z,0.53
2018-12-22T00:54:42.627Z,1.00
2018-12-22T00:57:11.444Z,0.40
2018-12-22T00:59:40.263Z,1.80
2018-12-22T01:02:09.092Z,0.60
2018-12-22T01:04:37.910Z,0.50
2018-12-22T01:07:06.750Z,0.40
2018-12-22T01:09:35.569Z,0.43
2018-12-22T01:12:04.556Z,1.03
2018-12-22T01:14:33.392Z,0.70
2018-12-22T01:17:02.225Z,0.80
2018-12-22T01:19:31.042Z,0.60
2018-12-22T01:21:59.954Z,1.10
2018-12-22T01:24:28.806Z,0.50
2018-12-22T01:26:57.634Z,1.60
2018-12-22T01:29:26.489Z,0.40
2018-12-22T01:31:55.410Z,0.70
2018-12-22T01:34:24.297Z,0.40
2018-12-22T01:36:53.194Z,0.50
2018-12-22T01:39:22.074Z,0.60
2018-12-22T01:41:51.066Z,0.93
2018-12-22T01:44:20.006Z,0.40
2018-12-22T01:46:49.163Z,0.97
2018-12-22T01:49:18.051Z,0.87
2018-12-22T01:51:46.946Z,1.73
2018-12-22T01:54:15.821Z,0.50
2018-12-22T01:56:44.727Z,0.60
2018-12-22T01:59:13.553Z,0.50
2018-12-22T02:01:42.403Z,0.40
2018-12-22T02:04:11.263Z,0.63
2018-12-22T02:06:40.290Z,0.50
2018-12-22T02:09:09.158Z,0.67
2018-12-22T02:11:37.987Z,0.40
2018-12-22T02:14:06.920Z,0.40
2018-12-22T02:16:35.975Z,0.40
2018-12-22T02:19:04.875Z,0.50
2018-12-22T02:21:33.731Z,1.07
2018-12-22T02:24:02.555Z,0.50
2018-12-22T02:26:31.391Z,0.47
2018-12-22T02:29:00.227Z,1.50
2018-12-22T02:31:29.059Z,3.00
2018-12-22T02:33:57.978Z,0.40
2018-12-22T02:36:26.962Z,0.40
2018-12-22T02:38:55.858Z,2.10
2018-12-22T02:41:24.682Z,0.67
2018-12-22T02:43:53.521Z,0.60
2018-12-22T02:46:22.406Z,0.40
2018-12-22T02:48:51.237Z,5.73
2018-12-22T02:51:20.474Z,0.40
2018-12-22T02:53:49.283Z,0.47
2018-12-22T02:56:18.287Z,0.50
2018-12-22T02:58:47.195Z,0.50
2018-12-22T03:01:16.048Z,0.53
2018-12-22T03:03:44.922Z,0.50
2018-12-22T03:06:13.762Z,0.50
2018-12-22T03:08:42.606Z,0.50
2018-12-22T03:11:12.546Z,0.40
2018-12-22T03:13:41.760Z,0.70
2018-12-22T03:16:10.664Z,0.40
2018-12-22T03:18:39.532Z,0.40
2018-12-22T03:21:08.374Z,0.50
2018-12-22T03:23:37.211Z,0.40
2018-12-22T03:26:06.106Z,1.10
2018-12-22T03:28:34.955Z,0.40
2018-12-22T03:31:03.776Z,1.07
2018-12-22T03:33:36.293Z,0.40
2018-12-22T03:36:05.351Z,0.40
2018-12-22T03:38:34.243Z,0.50
2018-12-22T03:41:03.151Z,0.40
2018-12-22T03:43:32.024Z,1.37
2018-12-22T03:46:00.858Z,1.03
2018-12-22T03:48:30.075Z,0.50
2018-12-22T03:50:59.049Z,0.60
2018-12-22T03:53:28.556Z,1.27
2018-12-22T03:55:57.463Z,0.50
2018-12-22T03:58:26.487Z,0.40
2018-12-22T04:00:55.374Z,0.93
2018-12-22T04:03:24.281Z,0.40
2018-12-22T04:05:54.192Z,0.90
2018-12-22T04:08:23.006Z,0.93
2018-12-22T04:10:51.837Z,0.50
2018-12-22T04:13:20.663Z,0.93
2018-12-22T04:15:49.507Z,0.87
2018-12-22T04:18:18.347Z,0.50
2018-12-22T04:20:47.179Z,0.53
2018-12-22T04:23:15.994Z,1.40
2018-12-22T04:25:45.154Z,0.93
2018-12-22T04:28:14.005Z,5.50
2018-12-22T04:30:42.842Z,1.60
2018-12-22T04:33:11.702Z,2.70
2018-12-22T04:35:41.614Z,1.13
2018-12-22T04:38:10.487Z,2.87
2018-12-22T04:40:39.326Z,0.70
2018-12-22T04:43:08.143Z,1.27
2018-12-22T04:45:37.001Z,4.30
2018-12-22T04:48:05.860Z,1.40
2018-12-22T04:50:34.787Z,0.90
2018-12-22T04:53:03.609Z,1.00
2018-12-22T04:55:32.439Z,2.30
2018-12-22T04:58:01.291Z,1.90
2018-12-22T05:00:30.191Z,2.30
2018-12-22T05:02:59.025Z,1.00
2018-12-22T05:05:27.955Z,3.27
2018-12-22T05:07:56.829Z,1.73
2018-12-22T05:10:25.651Z,0.80
2018-12-22T05:12:54.523Z,1.60
2018-12-22T05:15:23.330Z,2.17
2018-12-22T05:17:52.154Z,4.13
2018-12-22T05:20:20.970Z,4.00
2018-12-22T05:22:49.893Z,25.03
2018-12-22T05:25:18.788Z,0.50
2018-12-22T05:27:47.620Z,408.70
2018-12-22T05:30:16.471Z,248.43
2018-12-22T05:32:45.315Z,3.07
2018-12-22T05:35:14.130Z,34.00
2018-12-22T05:37:43.119Z,20.73
2018-12-22T05:40:11.946Z,6.07
2018-12-22T05:42:40.794Z,1.97
2018-12-22T05:45:09.634Z,451.73
2018-12-22T05:47:38.513Z,451.23
2018-12-22T05:50:07.695Z,379.80
2018-12-22T05:52:36.523Z,310.80
2018-12-22T05:55:06.169Z,161.43
2018-12-22T05:57:35.077Z,84.40
2018-12-22T06:00:04.799Z,13.93
2018-12-22T06:02:33.946Z,35.23
2018-12-22T06:05:02.776Z,1.43
2018-12-22T06:07:31.671Z,102.53
2018-12-22T06:10:00.564Z,50.10
2018-12-22T06:12:29.538Z,66.13
2018-12-22T06:14:58.498Z,9.93
2018-12-22T06:17:27.642Z,37.13
2018-12-22T06:19:56.823Z,17.17
2018-12-22T06:22:25.814Z,16.23
2018-12-22T06:24:54.720Z,9.53
2018-12-22T06:27:23.619Z,40.70
2018-12-22T06:29:52.508Z,21.10
2018-12-22T06:32:21.656Z,17.90
2018-12-22T06:34:50.495Z,41.63
2018-12-22T06:37:19.460Z,12.00
2018-12-22T06:39:48.371Z,16.47
2018-12-22T06:42:17.206Z,17.73
2018-12-22T06:44:46.029Z,7.10
2018-12-22T06:47:14.883Z,5.77
2018-12-22T06:49:43.748Z,4.20
2018-12-22T06:52:12.597Z,6.23
2018-12-22T06:54:41.469Z,6.77
2018-12-22T06:57:10.387Z,4.87
2018-12-22T06:59:39.239Z,5.20
2018-12-22T07:02:08.237Z,5.30
2018-12-22T07:04:37.131Z,9.67
2018-12-22T07:07:06.011Z,5.33
2018-12-22T07:09:34.831Z,6.20
2018-12-22T07:12:03.666Z,6.33
2018-12-22T07:14:32.614Z,13.43
2018-12-22T07:17:01.466Z,34.93
2018-12-22T07:19:30.991Z,8.13
2018-12-22T07:21:59.812Z,9.03
2018-12-22T07:24:28.702Z,20.50
2018-12-22T07:26:57.525Z,9.60
2018-12-22T07:29:26.376Z,50.67
2018-12-22T07:31:55.241Z,89.33
2018-12-22T07:34:24.151Z,362.80
2018-12-22T07:36:52.981Z,11.00
2018-12-22T07:39:22.185Z,83.93
2018-12-22T07:41:51.027Z,294.23
2018-12-22T07:44:19.860Z,300.17
2018-12-22T07:46:48.715Z,179.03
2018-12-22T07:49:17.594Z,303.47
2018-12-22T07:51:46.455Z,351.60
2018-12-22T07:54:15.418Z,354.60
2018-12-22T07:56:44.368Z,367.77
2018-12-22T07:59:13.234Z,319.70
2018-12-22T08:01:42.166Z,346.53
2018-12-22T08:04:11.039Z,358.97
2018-12-22T08:06:40.176Z,136.77
2018-12-22T08:09:09.118Z,244.43
2018-12-22T08:11:38.024Z,373.17
2018-12-22T08:14:06.846Z,350.57
2018-12-22T08:16:35.742Z,381.67
2018-12-22T08:19:04.698Z,333.83
2018-12-22T08:21:33.548Z,345.17
2018-12-22T08:24:02.378Z,374.80
2018-12-22T08:26:31.269Z,361.23
2018-12-22T08:29:00.140Z,375.57
2018-12-22T08:31:29.000Z,396.07
2018-12-22T08:33:57.862Z,342.43
2018-12-22T08:36:26.846Z,343.10
2018-12-22T08:38:55.700Z,358.17
2018-12-22T08:41:24.534Z,360.47
2018-12-22T08:43:53.379Z,383.30
2018-12-22T08:46:22.229Z,377.50
2018-12-22T08:48:51.067Z,346.27
2018-12-22T08:51:19.899Z,354.23
2018-12-22T08:53:48.767Z,362.60
2018-12-22T08:56:17.739Z,369.63
2018-12-22T08:58:46.639Z,374.33
2018-12-22T09:01:15.487Z,358.43
2018-12-22T09:03:44.320Z,377.47
2018-12-22T09:06:13.206Z,348.17
2018-12-22T09:08:42.121Z,362.23
2018-12-22T09:11:11.164Z,372.63
2018-12-22T09:13:40.014Z,380.03
2018-12-22T09:16:08.892Z,373.73
2018-12-22T09:18:37.715Z,378.50
2018-12-22T09:21:06.602Z,357.97
2018-12-22T09:23:35.489Z,383.17
2018-12-22T09:26:04.343Z,370.93
2018-12-22T09:28:33.319Z,366.03
2018-12-22T09:31:02.186Z,394.20
2018-12-22T09:33:32.685Z,386.37
2018-12-22T09:36:01.547Z,386.67
2018-12-22T09:38:30.407Z,316.93
2018-12-22T09:40:59.300Z,9.20
2018-12-22T09:43:28.411Z,13.30
2018-12-22T09:45:57.243Z,9.93
2018-12-22T09:48:26.072Z,40.37
2018-12-22T09:50:55.070Z,16.77
2018-12-22T09:53:23.929Z,25.87
2018-12-22T09:55:52.735Z,13.77
2018-12-22T09:58:21.639Z,17.57
2018-12-22T10:00:51.347Z,3.67
2018-12-22T10:03:20.222Z,140.43
2018-12-22T10:05:49.110Z,12.87
2018-12-22T10:08:17.998Z,15.60
2018-12-22T10:10:46.858Z,10.47
2018-12-22T10:13:15.712Z,10.70
2018-12-22T10:15:44.583Z,330.00
2018-12-22T10:18:13.602Z,100.20
2018-12-22T10:20:42.522Z,183.47
2018-12-22T10:23:11.473Z,327.40
2018-12-22T10:25:40.348Z,54.37
2018-12-22T10:28:09.363Z,303.93
2018-12-22T10:30:38.247Z,298.03
2018-12-22T10:33:10.106Z,306.33
2018-12-22T10:35:39.107Z,157.87
2018-12-22T10:38:08.075Z,193.70
2018-12-22T10:40:36.983Z,190.77
2018-12-22T10:43:05.862Z,222.83
2018-12-22T10:45:34.707Z,278.57
2018-12-22T10:48:03.611Z,104.87
2018-12-22T10:50:32.539Z,62.33
2018-12-22T10:53:02.367Z,59.07
2018-12-22T10:55:31.246Z,75.23
2018-12-22T10:58:00.130Z,235.77
2018-12-22T11:00:29.012Z,180.60
2018-12-22T11:02:57.922Z,365.50
2018-12-22T11:05:26.734Z,9.47
2018-12-22T11:07:55.681Z,13.83
2018-12-22T11:10:26.170Z,42.13
2018-12-22T11:12:57.675Z,95.03
2018-12-22T11:15:26.525Z,127.53
2018-12-22T11:17:55.364Z,99.03
2018-12-22T11:20:24.453Z,145.07
2018-12-22T11:22:53.337Z,90.17
2018-12-22T11:25:24.989Z,98.87
2018-12-22T11:27:54.942Z,118.33
2018-12-22T11:30:27.169Z,212.53
2018-12-22T11:32:56.103Z,388.97
2018-12-22T11:35:24.990Z,311.50
2018-12-22T11:37:53.915Z,385.93
2018-12-22T11:40:22.772Z,366.53
2018-12-22T11:42:51.832Z,376.10
2018-12-22T11:45:20.758Z,364.37
2018-12-22T11:48:00.875Z,386.03
2018-12-22T11:50:29.783Z,386.37
2018-12-22T11:52:58.690Z,373.87
2018-12-22T11:55:27.538Z,355.17
2018-12-22T11:57:56.430Z,336.13
2018-12-22T12:00:25.318Z,345.03
2018-12-22T12:02:54.242Z,346.10
2018-12-22T12:05:23.180Z,345.83
2018-12-22T12:07:52.090Z,344.10
2018-12-22T12:10:20.946Z,346.37
2018-12-22T12:12:49.793Z,363.40
2018-12-22T12:15:21.763Z,358.57
2018-12-22T12:18:06.097Z,346.83
2018-12-22T12:20:34.964Z,328.20
2018-12-22T12:23:03.870Z,336.03
2018-12-22T12:25:32.762Z,326.93
2018-12-22T12:28:01.616Z,342.50
2018-12-22T12:30:30.501Z,79.67
2018-12-22T12:32:59.343Z,22.70
2018-12-22T12:35:28.227Z,25.37
2018-12-22T12:37:57.075Z,108.17
2018-12-22T12:40:26.003Z,317.77
2018-12-22T12:42:54.875Z,276.63
2018-12-22T12:45:23.699Z,345.07
2018-12-22T12:47:52.535Z,286.83
2018-12-22T12:50:22.510Z,258.00
2018-12-22T12:52:51.375Z,195.67
2018-12-22T12:55:20.247Z,243.13
2018-12-22T12:57:49.081Z,196.97
2018-12-22T13:00:18.574Z,306.63
2018-12-22T13:02:47.571Z,254.43
2018-12-22T13:05:16.430Z,328.43
2018-12-22T13:07:45.295Z,338.87
2018-12-22T13:10:14.127Z,323.63
2018-12-22T13:12:53.471Z,356.17
2018-12-22T13:15:23.616Z,356.13
2018-12-22T13:17:52.542Z,326.53
2018-12-22T13:20:21.414Z,332.02
2018-12-22T13:22:50.255Z,374.87
2018-12-22T13:25:19.179Z,354.90
2018-12-22T13:27:48.047Z,310.20
2018-12-22T13:30:16.940Z,325.43
2018-12-22T13:32:45.843Z,350.07
2018-12-22T13:35:14.815Z,339.70
2018-12-22T13:37:43.862Z,338.37
2018-12-22T13:40:12.975Z,281.23
2018-12-22T13:42:41.905Z,320.33
2018-12-22T13:45:10.944Z,338.80
2018-12-22T13:47:40.082Z,390.60
2018-12-22T13:50:09.109Z,368.00
2018-12-22T13:52:38.029Z,341.43
2018-12-22T13:55:07.795Z,339.80
2018-12-22T13:57:36.972Z,363.63
2018-12-22T14:00:09.967Z,367.40
2018-12-22T14:02:39.991Z,371.30
2018-12-22T14:05:11.447Z,373.47
2018-12-22T14:07:40.321Z,389.10
2018-12-22T14:10:10.472Z,364.07
2018-12-22T14:12:39.392Z,311.43
2018-12-22T14:15:12.027Z,373.45
2018-12-22T14:18:01.708Z,372.70
2018-12-22T14:20:32.003Z,319.00
2018-12-22T14:23:00.868Z,333.83
2018-12-22T14:25:30.914Z,308.77
2018-12-22T14:27:59.779Z,332.00
2018-12-22T14:30:28.622Z,350.80
2018-12-22T14:32:59.434Z,350.50
2018-12-22T14:35:39.978Z,300.57
2018-12-22T14:38:08.849Z,373.47
2018-12-22T14:40:38.766Z,345.40
2018-12-22T14:43:07.635Z,160.93
2018-12-22T14:45:36.514Z,306.75
2018-12-22T14:48:05.466Z,350.97
2018-12-22T14:50:34.342Z,331.53
2018-12-22T14:53:03.277Z,350.30
2018-12-22T14:55:33.106Z,359.83
2018-12-22T14:58:36.150Z,369.07
2018-12-22T15:01:05.119Z,371.03
2018-12-22T15:03:34.237Z,381.30
2018-12-22T15:06:03.189Z,378.60
2018-12-22T15:08:32.127Z,377.47
2018-12-22T15:11:01.033Z,385.57
2018-12-22T15:13:29.889Z,360.97
2018-12-22T15:15:58.736Z,360.00
2018-12-22T15:18:27.607Z,387.10
2018-12-22T15:20:57.739Z,359.65
2018-12-22T15:23:26.592Z,356.20
2018-12-22T15:25:55.487Z,345.83
2018-12-22T15:28:24.536Z,359.60
2018-12-22T15:30:53.355Z,349.97
2018-12-22T15:33:22.962Z,341.27
2018-12-22T15:35:51.832Z,336.83
2018-12-22T15:38:20.666Z,338.33
2018-12-22T15:40:49.621Z,340.82
2018-12-22T15:43:19.660Z,335.53
2018-12-22T15:45:48.618Z,354.93
2018-12-22T15:48:17.491Z,353.07
2018-12-22T15:50:47.772Z,334.73
2018-12-22T15:53:16.773Z,341.70
2018-12-22T15:55:45.627Z,328.90
2018-12-22T15:58:14.579Z,336.83
2018-12-22T16:00:43.440Z,335.93
2018-12-22T16:03:12.327Z,350.00
2018-12-22T16:05:41.243Z,349.47
2018-12-22T16:08:10.167Z,354.17
2018-12-22T16:10:39.201Z,343.67
2018-12-22T16:13:08.067Z,341.97
2018-12-22T16:15:36.918Z,344.53
2018-12-22T16:18:05.867Z,347.27
2018-12-22T16:20:34.793Z,345.40
2018-12-22T16:23:04.571Z,331.37
2018-12-22T16:25:33.576Z,322.57
2018-12-22T16:28:09.728Z,342.50
2018-12-22T16:30:43.056Z,336.67
2018-12-22T16:33:12.140Z,348.47
2018-12-22T16:35:40.996Z,352.10
2018-12-22T16:38:09.948Z,354.47
2018-12-22T16:40:38.912Z,345.77
2018-12-22T16:43:10.946Z,353.70
2018-12-22T16:45:43.140Z,357.33
2018-12-22T16:48:12.056Z,355.93
2018-12-22T16:50:42.535Z,341.27
2018-12-22T16:53:11.549Z,348.37
2018-12-22T16:55:40.622Z,343.87
2018-12-22T16:58:44.811Z,340.63
2018-12-22T17:01:37.459Z,353.57
2018-12-22T17:04:06.407Z,348.27
2018-12-22T17:06:35.979Z,339.73
2018-12-22T17:09:06.933Z,339.53
2018-12-22T17:11:35.813Z,347.57
2018-12-22T17:14:04.831Z,346.50
2018-12-22T17:16:33.714Z,343.57
2018-12-22T17:19:02.699Z,345.90
2018-12-22T17:21:49.823Z,365.10
2018-12-22T17:24:31.202Z,386.90
2018-12-22T17:27:00.052Z,385.93
2018-12-22T17:29:28.983Z,375.07
2018-12-22T17:31:57.935Z,357.23
2018-12-22T17:34:26.895Z,366.97
2018-12-22T17:36:55.839Z,355.40
2018-12-22T17:39:24.735Z,343.73
2018-12-22T17:41:53.721Z,350.80
2018-12-22T17:44:22.542Z,380.53
2018-12-22T17:46:51.421Z,384.97
2018-12-22T17:49:20.507Z,381.30
2018-12-22T17:51:49.362Z,423.50
2018-12-22T17:54:19.096Z,432.00
2018-12-22T17:56:48.103Z,424.67
2018-12-22T17:59:17.035Z,417.03
2018-12-22T18:01:45.990Z,402.30
2018-12-22T18:04:14.882Z,404.03
2018-12-22T18:06:43.759Z,397.97
2018-12-22T18:09:12.650Z,408.20
2018-12-22T18:11:41.502Z,392.17
2018-12-22T18:14:10.406Z,9.00
2018-12-22T18:16:39.316Z,7.83
2018-12-22T18:19:08.342Z,7.20
2018-12-22T18:21:37.840Z,5.63
2018-12-22T18:24:06.802Z,5.57
2018-12-22T18:26:35.718Z,7.03
2018-12-22T18:29:04.554Z,5.63
2018-12-22T18:31:33.470Z,7.27
2018-12-22T18:34:02.383Z,6.10
2018-12-22T18:36:31.359Z,13.17
2018-12-22T18:39:00.255Z,12.83
2018-12-22T18:41:29.247Z,5.80
2018-12-22T18:43:58.147Z,5.37
2018-12-22T18:46:27.011Z,10.03
2018-12-22T18:48:55.887Z,8.10
2018-12-22T18:51:24.863Z,8.10
2018-12-22T18:53:53.768Z,9.97
2018-12-22T18:56:22.811Z,7.20
2018-12-22T18:58:52.191Z,9.80
2018-12-22T19:01:21.153Z,5.57
2018-12-22T19:03:50.095Z,21.30
2018-12-22T19:06:18.916Z,25.23
2018-12-22T19:08:48.767Z,19.43
2018-12-22T19:11:19.927Z,11.87
2018-12-22T19:13:48.854Z,12.23
2018-12-22T19:16:17.811Z,10.47
2018-12-22T19:18:46.714Z,18.57
2018-12-22T19:21:15.551Z,10.00
2018-12-22T19:23:44.706Z,6.67
2018-12-22T19:26:13.555Z,8.93
2018-12-22T19:28:42.444Z,12.80
2018-12-22T19:31:12.370Z,8.40
2018-12-22T19:33:41.458Z,10.50
2018-12-22T19:36:10.326Z,10.90
2018-12-22T19:38:39.166Z,36.97
2018-12-22T19:42:11.322Z,284.40
2018-12-22T19:44:40.324Z,347.47
2018-12-22T19:47:09.157Z,368.80
2018-12-22T19:49:38.001Z,270.20
2018-12-22T19:52:06.991Z,252.50
2018-12-22T19:54:35.883Z,270.37
2018-12-22T19:57:04.803Z,337.60
2018-12-22T19:59:33.656Z,365.23
2018-12-22T20:02:02.571Z,369.10
2018-12-22T20:04:31.443Z,437.63
2018-12-22T20:07:00.275Z,2.50
2018-12-22T20:09:29.122Z,1.13
2018-12-22T20:11:57.954Z,2.60
2018-12-22T20:14:26.790Z,5.53
2018-12-22T20:16:55.676Z,3.57
2018-12-22T20:19:24.608Z,1.80
2018-12-22T20:21:53.432Z,2.07
2018-12-22T20:24:28.553Z,1.30
2018-12-22T20:26:57.572Z,1.67
2018-12-22T20:29:26.393Z,2.30
2018-12-22T20:31:55.283Z,1.60
2018-12-22T20:34:24.182Z,2.10
2018-12-22T20:36:53.007Z,3.20
2018-12-22T20:39:21.961Z,5.20
2018-12-22T20:41:51.105Z,4.93
2018-12-22T20:44:19.964Z,2.97
2018-12-22T20:46:48.826Z,3.50
2018-12-22T20:49:17.764Z,4.10
2018-12-22T20:51:46.623Z,3.17
2018-12-22T20:54:15.603Z,3.80
2018-12-22T20:56:44.474Z,6.47
2018-12-22T20:59:13.368Z,3.60
2018-12-22T21:01:42.466Z,2.30
2018-12-22T21:04:19.658Z,6.00
2018-12-22T21:06:42.265Z,5.30
2018-12-22T21:09:11.101Z,8.37
2018-12-22T21:11:40.184Z,8.50
2018-12-22T21:14:09.337Z,4.60
2018-12-22T21:16:38.482Z,4.47
2018-12-22T21:19:07.354Z,7.60
2018-12-22T21:21:36.206Z,8.47
2018-12-22T21:24:05.168Z,5.27
2018-12-22T21:26:34.014Z,3.63
2018-12-22T21:29:02.854Z,8.03
2018-12-22T21:31:31.706Z,11.53
2018-12-22T21:34:00.616Z,2.50
2018-12-22T21:36:29.502Z,2.83
2018-12-22T21:38:58.518Z,6.70
2018-12-22T21:41:27.583Z,5.90
2018-12-22T21:43:56.493Z,8.37
2018-12-22T21:46:25.367Z,4.03
2018-12-22T21:48:54.253Z,2.87
2018-12-22T21:51:23.095Z,4.67
2018-12-22T21:53:52.029Z,2.50
2018-12-22T21:56:20.951Z,2.83
2018-12-22T21:58:49.831Z,8.53
2018-12-22T22:01:18.673Z,2.33
2018-12-22T22:03:47.543Z,3.63
2018-12-22T22:06:16.419Z,4.67
2018-12-22T22:08:45.283Z,15.43
2018-12-22T22:11:14.259Z,6.73
2018-12-22T22:13:43.187Z,4.33
2018-12-22T22:16:12.027Z,2.13
2018-12-22T22:18:40.871Z,2.27
2018-12-22T22:21:09.745Z,5.77
2018-12-22T22:23:38.715Z,2.63
2018-12-22T22:26:07.627Z,3.27
2018-12-22T22:28:36.584Z,2.50
2018-12-22T22:31:05.463Z,3.40
2018-12-22T22:33:37.408Z,1.40
2018-12-22T22:36:06.409Z,3.70
2018-12-22T22:38:35.296Z,1.33
2018-12-22T22:41:04.143Z,1.80
2018-12-22T22:43:33.736Z,1.37
2018-12-22T22:46:02.710Z,2.30
2018-12-22T22:48:31.551Z,1.97
2018-12-22T22:51:00.414Z,0.90
2018-12-22T22:53:29.231Z,1.00
2018-12-22T22:55:58.090Z,1.20
2018-12-22T22:58:27.006Z,0.90
2018-12-22T23:00:55.935Z,3.50
2018-12-22T23:03:24.870Z,3.40
2018-12-22T23:05:53.772Z,2.50
2018-12-22T23:08:22.646Z,2.40
2018-12-22T23:10:51.693Z,1.83
2018-12-22T23:13:20.597Z,2.27
2018-12-22T23:15:49.431Z,0.95
2018-12-22T23:18:19.343Z,2.43
2018-12-22T23:20:48.159Z,1.43
2018-12-22T23:23:17.012Z,2.00
2018-12-22T23:25:45.907Z,2.50
2018-12-22T23:28:14.815Z,1.17
2018-12-22T23:30:43.646Z,1.67
2018-12-22T23:33:12.830Z,1.37
2018-12-22T23:35:41.678Z,1.00
2018-12-22T23:38:10.582Z,0.80
2018-12-22T23:40:39.512Z,2.20
2018-12-22T23:43:08.396Z,2.10
2018-12-22T23:45:37.241Z,2.10
2018-12-22T23:48:06.103Z,1.67
2018-12-22T23:50:34.931Z,1.37
2018-12-22T23:53:03.811Z,2.20
2018-12-22T23:55:32.667Z,1.13
2018-12-22T23:58:01.579Z,1.27
